createdAt,value
2022-07-30T00:00:31.783Z,993.00
2022-07-30T00:01:31.809Z,993.02
2022-07-30T00:02:31.761Z,992.96
2022-07-30T00:03:31.790Z,993.05
2022-07-30T00:04:31.725Z,992.98
2022-07-30T00:05:31.721Z,993.08
2022-07-30T00:06:31.714Z,993.07
2022-07-30T00:07:31.713Z,993.05
2022-07-30T00:08:31.672Z,993.10
2022-07-30T00:09:34.220Z,993.03
2022-07-30T00:10:31.671Z,993.03
2022-07-30T00:11:31.672Z,993.02
2022-07-30T00:12:31.647Z,993.02
2022-07-30T00:13:31.641Z,993.08
2022-07-30T00:14:31.617Z,993.03
2022-07-30T00:15:31.604Z,993.12
2022-07-30T00:16:31.621Z,993.05
2022-07-30T00:17:31.618Z,993.07
2022-07-30T00:18:31.599Z,993.02
2022-07-30T00:19:31.581Z,993.11
2022-07-30T00:20:32.317Z,993.10
2022-07-30T00:21:38.898Z,993.08
2022-07-30T00:22:32.587Z,993.10
2022-07-30T00:23:31.549Z,993.13
2022-07-30T00:24:31.547Z,993.02
2022-07-30T00:25:31.533Z,993.07
2022-07-30T00:26:31.507Z,993.04
2022-07-30T00:27:31.497Z,993.13
2022-07-30T00:28:31.506Z,993.16
2022-07-30T00:29:31.475Z,993.12
2022-07-30T00:30:31.552Z,993.13
2022-07-30T00:31:31.465Z,993.13
2022-07-30T00:32:31.457Z,993.13
2022-07-30T00:33:31.448Z,993.10
2022-07-30T00:34:31.415Z,993.21
2022-07-30T00:35:31.421Z,993.13
2022-07-30T00:36:31.425Z,993.13
2022-07-30T00:37:31.408Z,993.09
2022-07-30T00:38:31.404Z,993.10
2022-07-30T00:39:31.368Z,993.13
2022-07-30T00:40:31.366Z,993.17
2022-07-30T00:41:31.370Z,993.13
2022-07-30T00:42:31.359Z,993.13
2022-07-30T00:43:31.359Z,993.10
2022-07-30T00:44:31.346Z,993.16
2022-07-30T00:45:31.350Z,993.12
2022-07-30T00:46:31.306Z,993.04
2022-07-30T00:47:31.308Z,993.08
2022-07-30T00:48:31.305Z,993.09
2022-07-30T00:49:31.288Z,993.09
2022-07-30T00:50:31.274Z,993.08
2022-07-30T00:51:31.272Z,993.08
2022-07-30T00:52:31.271Z,993.07
2022-07-30T00:53:31.256Z,993.04
2022-07-30T00:54:31.230Z,993.06
2022-07-30T00:55:31.225Z,993.07
2022-07-30T00:56:31.217Z,993.08
2022-07-30T00:57:31.191Z,993.02
2022-07-30T00:58:31.196Z,993.00
2022-07-30T00:59:31.188Z,993.06
2022-07-30T01:00:31.179Z,993.01
2022-07-30T01:01:31.203Z,993.06
2022-07-30T01:02:31.231Z,993.08
2022-07-30T01:03:31.155Z,992.98
2022-07-30T01:04:32.140Z,992.97
2022-07-30T01:05:31.126Z,993.02
2022-07-30T01:06:31.113Z,992.93
2022-07-30T01:07:31.114Z,992.93
2022-07-30T01:08:31.102Z,992.97
2022-07-30T01:09:31.117Z,993.03
2022-07-30T01:10:31.075Z,992.90
2022-07-30T01:11:31.053Z,992.92
2022-07-30T01:12:31.048Z,992.87
2022-07-30T01:13:31.040Z,992.93
2022-07-30T01:14:31.030Z,992.88
2022-07-30T01:15:31.009Z,992.95
2022-07-30T01:16:31.032Z,992.96
2022-07-30T01:17:30.990Z,992.99
2022-07-30T01:18:31.017Z,993.00
2022-07-30T01:19:30.973Z,992.90
2022-07-30T01:20:30.982Z,993.02
2022-07-30T01:21:30.965Z,993.07
2022-07-30T01:22:31.247Z,993.03
2022-07-30T01:23:30.953Z,992.91
2022-07-30T01:24:30.934Z,993.01
2022-07-30T01:25:30.932Z,992.97
2022-07-30T01:26:30.910Z,992.93
2022-07-30T01:27:30.885Z,993.04
2022-07-30T01:28:30.893Z,992.98
2022-07-30T01:29:30.872Z,992.94
2022-07-30T01:30:30.860Z,992.94
2022-07-30T01:31:30.920Z,992.95
2022-07-30T01:32:30.845Z,992.97
2022-07-30T01:33:30.852Z,992.89
2022-07-30T01:34:30.812Z,993.02
2022-07-30T01:35:30.799Z,992.95
2022-07-30T01:36:30.784Z,992.94
2022-07-30T01:37:30.776Z,992.88
2022-07-30T01:38:31.187Z,993.01
2022-07-30T01:39:30.781Z,993.02
2022-07-30T01:40:30.772Z,992.90
2022-07-30T01:41:30.765Z,992.89
2022-07-30T01:42:30.761Z,993.04
2022-07-30T01:43:30.742Z,992.84
2022-07-30T01:44:30.712Z,992.93
2022-07-30T01:45:30.723Z,992.92
2022-07-30T01:46:30.684Z,992.89
2022-07-30T01:47:30.698Z,992.98
2022-07-30T01:48:30.704Z,992.91
2022-07-30T01:49:30.681Z,992.91
2022-07-30T01:50:30.647Z,992.94
2022-07-30T01:51:37.153Z,992.97
2022-07-30T01:52:31.653Z,993.00
2022-07-30T01:53:30.631Z,993.07
2022-07-30T01:54:30.605Z,993.07
2022-07-30T01:55:30.606Z,993.15
2022-07-30T01:56:30.585Z,993.08
2022-07-30T01:57:30.571Z,993.09
2022-07-30T01:58:30.568Z,993.02
2022-07-30T01:59:30.571Z,993.07
2022-07-30T02:00:30.547Z,993.16
2022-07-30T02:01:30.619Z,993.13
2022-07-30T02:02:30.515Z,993.09
2022-07-30T02:03:30.536Z,993.11
2022-07-30T02:04:30.518Z,993.08
2022-07-30T02:05:30.501Z,993.09
2022-07-30T02:06:30.488Z,993.05
2022-07-30T02:07:30.460Z,993.08
2022-07-30T02:08:30.465Z,993.15
2022-07-30T02:09:30.455Z,993.10
2022-07-30T02:10:30.448Z,993.11
2022-07-30T02:11:30.453Z,993.10
2022-07-30T02:12:30.411Z,993.11
2022-07-30T02:13:30.410Z,993.10
2022-07-30T02:14:30.426Z,993.08
2022-07-30T02:15:30.407Z,993.14
2022-07-30T02:16:30.481Z,993.10
2022-07-30T02:17:39.588Z,993.15
2022-07-30T02:18:31.370Z,993.14
2022-07-30T02:19:32.871Z,993.09
2022-07-30T02:20:30.336Z,993.13
2022-07-30T02:21:36.458Z,993.10
2022-07-30T02:22:31.302Z,993.11
2022-07-30T02:23:30.303Z,993.13
2022-07-30T02:24:30.310Z,993.08
2022-07-30T02:25:30.285Z,993.19
2022-07-30T02:26:30.268Z,993.09
2022-07-30T02:27:30.272Z,993.08
2022-07-30T02:28:30.277Z,993.14
2022-07-30T02:29:30.277Z,993.06
2022-07-30T02:30:30.245Z,993.05
2022-07-30T02:31:30.302Z,993.00
2022-07-30T02:32:30.233Z,993.07
2022-07-30T02:33:30.233Z,993.03
2022-07-30T02:34:30.261Z,993.04
2022-07-30T02:35:30.192Z,992.98
2022-07-30T02:36:30.193Z,993.10
2022-07-30T02:37:43.072Z,993.07
2022-07-30T02:38:31.160Z,993.03
2022-07-30T02:39:30.179Z,993.05
2022-07-30T02:40:30.169Z,993.04
2022-07-30T02:41:30.126Z,993.03
2022-07-30T02:42:30.139Z,993.05
2022-07-30T02:43:30.118Z,993.03
2022-07-30T02:44:31.130Z,992.98
2022-07-30T02:45:30.091Z,993.04
2022-07-30T02:46:30.109Z,993.03
2022-07-30T02:47:30.069Z,992.98
2022-07-30T02:48:35.036Z,992.96
2022-07-30T02:49:31.061Z,992.98
2022-07-30T02:50:30.038Z,992.94
2022-07-30T02:51:30.047Z,992.96
2022-07-30T02:52:30.014Z,992.96
2022-07-30T02:53:30.019Z,993.00
2022-07-30T02:54:31.326Z,993.00
2022-07-30T02:55:30.997Z,992.91
2022-07-30T02:56:29.979Z,992.92
2022-07-30T02:57:29.964Z,992.99
2022-07-30T02:58:29.969Z,992.92
2022-07-30T02:59:29.966Z,992.98
2022-07-30T03:00:30.031Z,992.94
2022-07-30T03:01:29.962Z,993.01
2022-07-30T03:02:29.984Z,992.94
2022-07-30T03:03:29.913Z,993.09
2022-07-30T03:04:29.912Z,993.02
2022-07-30T03:05:29.913Z,993.02
2022-07-30T03:06:29.898Z,993.13
2022-07-30T03:07:29.900Z,993.04
2022-07-30T03:08:29.875Z,993.19
2022-07-30T03:09:51.459Z,993.10
2022-07-30T03:10:30.880Z,993.25
2022-07-30T03:11:29.866Z,993.24
2022-07-30T03:12:29.843Z,993.26
2022-07-30T03:13:29.822Z,993.31
2022-07-30T03:14:29.821Z,993.28
2022-07-30T03:15:29.813Z,993.32
2022-07-30T03:16:30.533Z,993.31
2022-07-30T03:17:29.793Z,993.33
2022-07-30T03:18:29.767Z,993.32
2022-07-30T03:19:29.758Z,993.31
2022-07-30T03:20:29.755Z,993.28
2022-07-30T03:21:29.730Z,993.29
2022-07-30T03:22:33.014Z,993.32
2022-07-30T03:23:30.717Z,993.35
2022-07-30T03:24:29.705Z,993.31
2022-07-30T03:25:29.701Z,993.31
2022-07-30T03:26:29.704Z,993.32
2022-07-30T03:27:29.676Z,993.29
2022-07-30T03:28:29.681Z,993.32
2022-07-30T03:29:29.685Z,993.38
2022-07-30T03:30:29.671Z,993.29
2022-07-30T03:31:36.100Z,993.37
2022-07-30T03:32:30.646Z,993.34
2022-07-30T03:33:38.944Z,993.35
2022-07-30T03:34:30.606Z,993.42
2022-07-30T03:35:31.134Z,993.36
2022-07-30T03:36:29.616Z,993.34
2022-07-30T03:37:29.630Z,993.38
2022-07-30T03:38:29.579Z,993.36
2022-07-30T03:39:29.583Z,993.45
2022-07-30T03:40:29.573Z,993.50
2022-07-30T03:41:29.554Z,993.43
2022-07-30T03:42:29.543Z,993.49
2022-07-30T03:43:33.174Z,993.45
2022-07-30T03:44:29.534Z,993.43
2022-07-30T03:45:29.522Z,993.48
2022-07-30T03:46:29.572Z,993.47
2022-07-30T03:47:29.487Z,993.40
2022-07-30T03:48:29.505Z,993.45
2022-07-30T03:49:29.491Z,993.43
2022-07-30T03:50:29.486Z,993.36
2022-07-30T03:51:33.017Z,993.41
2022-07-30T03:52:29.451Z,993.46
2022-07-30T03:53:29.444Z,993.40
2022-07-30T03:54:29.419Z,993.36
2022-07-30T03:55:29.434Z,993.34
2022-07-30T03:56:29.453Z,993.43
2022-07-30T03:57:29.388Z,993.46
2022-07-30T03:58:32.186Z,993.37
2022-07-30T03:59:30.385Z,993.35
2022-07-30T04:00:29.385Z,993.35
2022-07-30T04:01:29.425Z,993.33
2022-07-30T04:02:29.356Z,993.30
2022-07-30T04:03:29.354Z,993.31
2022-07-30T04:04:29.321Z,993.42
2022-07-30T04:05:41.209Z,993.36
2022-07-30T04:06:30.312Z,993.39
2022-07-30T04:07:29.305Z,993.34
2022-07-30T04:08:29.304Z,993.39
2022-07-30T04:09:29.301Z,993.44
2022-07-30T04:10:29.271Z,993.44
2022-07-30T04:11:41.685Z,993.46
2022-07-30T04:12:30.270Z,993.48
2022-07-30T04:13:29.253Z,993.45
2022-07-30T04:14:29.213Z,993.51
2022-07-30T04:16:31.775Z,993.54
2022-07-30T04:16:39.425Z,993.56
2022-07-30T04:17:30.261Z,993.57
2022-07-30T04:18:29.221Z,993.59
2022-07-30T04:19:29.193Z,993.59
2022-07-30T04:20:29.170Z,993.57
2022-07-30T04:21:29.197Z,993.54
2022-07-30T04:22:29.148Z,993.66
2022-07-30T04:23:29.177Z,993.65
2022-07-30T04:24:29.147Z,993.60
2022-07-30T04:25:29.141Z,993.63
2022-07-30T04:26:29.127Z,993.71
2022-07-30T04:27:29.106Z,993.63
2022-07-30T04:28:29.080Z,993.68
2022-07-30T04:29:29.073Z,993.70
2022-07-30T04:30:29.071Z,993.64
2022-07-30T04:31:29.164Z,993.70
2022-07-30T04:32:29.064Z,993.65
2022-07-30T04:33:29.037Z,993.69
2022-07-30T04:34:29.036Z,993.65
2022-07-30T04:35:51.020Z,993.70
2022-07-30T04:36:30.024Z,993.73
2022-07-30T04:37:29.016Z,993.71
2022-07-30T04:38:29.008Z,993.68
2022-07-30T04:39:28.991Z,993.67
2022-07-30T04:40:28.974Z,993.70
2022-07-30T04:41:28.991Z,993.74
2022-07-30T04:42:30.959Z,993.77
2022-07-30T04:43:28.953Z,993.69
2022-07-30T04:44:28.944Z,993.69
2022-07-30T04:45:28.996Z,993.71
2022-07-30T04:46:28.966Z,993.75
2022-07-30T04:47:28.892Z,993.78
2022-07-30T04:48:28.896Z,993.68
2022-07-30T04:49:28.932Z,993.73
2022-07-30T04:50:28.865Z,993.76
2022-07-30T04:51:28.874Z,993.69
2022-07-30T04:52:28.857Z,993.71
2022-07-30T04:53:28.831Z,993.74
2022-07-30T04:54:28.841Z,993.78
2022-07-30T04:55:28.841Z,993.75
2022-07-30T04:56:28.843Z,993.78
2022-07-30T04:57:28.808Z,993.78
2022-07-30T04:58:28.789Z,993.80
2022-07-30T04:59:28.801Z,993.83
2022-07-30T05:00:32.132Z,993.79
2022-07-30T05:01:35.928Z,993.82
2022-07-30T05:02:29.772Z,993.84
2022-07-30T05:03:28.792Z,993.82
2022-07-30T05:04:28.773Z,993.87
2022-07-30T05:05:28.819Z,993.90
2022-07-30T05:06:29.756Z,993.94
2022-07-30T05:07:28.707Z,993.89
2022-07-30T05:08:29.083Z,993.96
2022-07-30T05:09:28.691Z,993.86
2022-07-30T05:10:28.671Z,993.93
2022-07-30T05:11:28.698Z,993.95
2022-07-30T05:12:28.675Z,993.94
2022-07-30T05:13:34.503Z,993.89
2022-07-30T05:14:29.665Z,993.88
2022-07-30T05:15:36.102Z,993.88
2022-07-30T05:16:29.716Z,993.91
2022-07-30T05:17:28.602Z,993.84
2022-07-30T05:18:28.608Z,993.92
2022-07-30T05:19:28.588Z,993.99
2022-07-30T05:20:28.571Z,993.95
2022-07-30T05:21:28.667Z,993.96
2022-07-30T05:22:28.545Z,993.96
2022-07-30T05:23:28.531Z,993.94
2022-07-30T05:24:28.522Z,993.94
2022-07-30T05:25:28.530Z,994.00
2022-07-30T05:26:28.514Z,993.98
2022-07-30T05:27:28.504Z,993.99
2022-07-30T05:28:28.508Z,994.00
2022-07-30T05:29:28.485Z,993.91
2022-07-30T05:30:28.470Z,993.89
2022-07-30T05:31:30.523Z,993.91
2022-07-30T05:32:28.447Z,993.93
2022-07-30T05:33:41.273Z,993.93
2022-07-30T05:34:29.442Z,993.89
2022-07-30T05:35:28.412Z,993.92
2022-07-30T05:36:28.406Z,993.94
2022-07-30T05:37:29.443Z,993.98
2022-07-30T05:38:28.754Z,993.91
2022-07-30T05:39:28.399Z,994.02
2022-07-30T05:40:28.404Z,993.90
2022-07-30T05:41:33.012Z,993.93
2022-07-30T05:42:28.350Z,993.94
2022-07-30T05:43:28.592Z,993.96
2022-07-30T05:44:28.383Z,993.92
2022-07-30T05:45:28.356Z,993.97
2022-07-30T05:46:28.497Z,993.92
2022-07-30T05:47:28.317Z,993.94
2022-07-30T05:48:28.320Z,993.99
2022-07-30T05:49:28.303Z,993.97
2022-07-30T05:50:28.275Z,994.02
2022-07-30T05:51:28.277Z,994.00
2022-07-30T05:52:28.252Z,994.08
2022-07-30T05:53:28.235Z,994.13
2022-07-30T05:54:28.247Z,994.06
2022-07-30T05:55:28.272Z,994.12
2022-07-30T05:56:28.255Z,994.14
2022-07-30T05:57:28.260Z,994.04
2022-07-30T05:58:29.244Z,994.07
2022-07-30T05:59:28.237Z,994.05
2022-07-30T06:00:28.432Z,994.03
2022-07-30T06:01:28.526Z,994.04
2022-07-30T06:02:28.249Z,994.04
2022-07-30T06:03:28.169Z,994.12
2022-07-30T06:04:28.199Z,994.14
2022-07-30T06:05:28.185Z,994.07
2022-07-30T06:06:28.174Z,994.08
2022-07-30T06:07:28.132Z,994.11
2022-07-30T06:08:28.097Z,994.12
2022-07-30T06:09:36.422Z,994.19
2022-07-30T06:10:29.086Z,994.16
2022-07-30T06:11:28.084Z,994.15
2022-07-30T06:12:28.082Z,994.11
2022-07-30T06:13:28.057Z,994.14
2022-07-30T06:14:28.064Z,994.12
2022-07-30T06:15:28.057Z,994.06
2022-07-30T06:16:28.143Z,994.07
2022-07-30T06:17:28.024Z,994.10
2022-07-30T06:18:28.024Z,994.05
2022-07-30T06:19:28.008Z,994.10
2022-07-30T06:20:28.055Z,994.07
2022-07-30T06:21:27.977Z,994.05
2022-07-30T06:22:28.990Z,994.08
2022-07-30T06:23:27.984Z,994.11
2022-07-30T06:24:29.115Z,994.08
2022-07-30T06:25:27.937Z,994.11
2022-07-30T06:26:27.925Z,994.08
2022-07-30T06:27:31.287Z,994.13
2022-07-30T06:28:37.700Z,994.12
2022-07-30T06:29:29.909Z,994.17
2022-07-30T06:30:31.096Z,994.09
2022-07-30T06:31:27.926Z,994.04
2022-07-30T06:32:27.883Z,994.12
2022-07-30T06:33:27.881Z,994.08
2022-07-30T06:34:27.860Z,994.07
2022-07-30T06:35:27.871Z,994.16
2022-07-30T06:36:27.853Z,994.09
2022-07-30T06:38:00.545Z,994.12
2022-07-30T06:38:28.826Z,994.14
2022-07-30T06:39:55.915Z,994.15
2022-07-30T06:40:28.800Z,994.15
2022-07-30T06:41:27.849Z,994.23
2022-07-30T06:42:27.833Z,994.22
2022-07-30T06:43:27.821Z,994.21
2022-07-30T06:44:27.789Z,994.25
2022-07-30T06:45:27.794Z,994.25
2022-07-30T06:46:27.840Z,994.28
2022-07-30T06:47:27.768Z,994.22
2022-07-30T06:48:27.739Z,994.26
2022-07-30T06:49:29.532Z,994.28
2022-07-30T06:50:28.749Z,994.28
2022-07-30T06:51:27.760Z,994.30
2022-07-30T06:52:27.829Z,994.27
2022-07-30T06:53:27.684Z,994.29
2022-07-30T06:54:27.669Z,994.27
2022-07-30T06:55:27.651Z,994.24
2022-07-30T06:56:27.647Z,994.24
2022-07-30T06:57:27.648Z,994.29
2022-07-30T06:58:27.653Z,994.25
2022-07-30T06:59:27.614Z,994.18
2022-07-30T07:00:27.637Z,994.20
2022-07-30T07:01:27.634Z,994.29
2022-07-30T07:02:27.604Z,994.25
2022-07-30T07:03:39.951Z,994.21
2022-07-30T07:04:28.614Z,994.32
2022-07-30T07:05:27.543Z,994.26
2022-07-30T07:06:27.546Z,994.26
2022-07-30T07:07:41.421Z,994.30
2022-07-30T07:08:53.228Z,994.31
2022-07-30T07:09:29.498Z,994.33
2022-07-30T07:10:30.433Z,994.29
2022-07-30T07:11:32.504Z,994.37
2022-07-30T07:12:28.629Z,994.24
2022-07-30T07:13:27.781Z,994.34
2022-07-30T07:14:27.485Z,994.33
2022-07-30T07:15:36.407Z,994.30
2022-07-30T07:16:28.561Z,994.31
2022-07-30T07:17:27.461Z,994.34
2022-07-30T07:18:27.437Z,994.30
2022-07-30T07:20:00.286Z,994.29
2022-07-30T07:20:30.810Z,994.29
2022-07-30T07:21:27.417Z,994.30
2022-07-30T07:22:27.401Z,994.30
2022-07-30T07:23:41.373Z,994.25
2022-07-30T07:24:28.372Z,994.23
2022-07-30T07:25:27.380Z,994.20
2022-07-30T07:26:27.354Z,994.21
2022-07-30T07:27:27.368Z,994.28
2022-07-30T07:28:33.365Z,994.19
2022-07-30T07:29:28.329Z,994.18
2022-07-30T07:30:27.368Z,994.26
2022-07-30T07:32:05.642Z,994.30
2022-07-30T07:32:28.348Z,994.30
2022-07-30T07:33:27.309Z,994.25
2022-07-30T07:34:27.273Z,994.27
2022-07-30T07:35:27.298Z,994.33
2022-07-30T07:36:27.346Z,994.31
2022-07-30T07:37:27.292Z,994.29
2022-07-30T07:38:27.256Z,994.35
2022-07-30T07:39:27.224Z,994.25
2022-07-30T07:40:27.224Z,994.26
2022-07-30T07:41:27.217Z,994.32
2022-07-30T07:42:27.213Z,994.29
2022-07-30T07:43:27.205Z,994.31
2022-07-30T07:44:27.170Z,994.33
2022-07-30T07:45:27.167Z,994.30
2022-07-30T07:46:33.433Z,994.25
2022-07-30T07:47:28.152Z,994.28
2022-07-30T07:48:27.163Z,994.28
2022-07-30T07:49:27.163Z,994.24
2022-07-30T07:50:27.104Z,994.21
2022-07-30T07:51:47.766Z,994.20
2022-07-30T07:52:28.110Z,994.17
2022-07-30T07:53:27.129Z,994.23
2022-07-30T07:54:27.081Z,994.28
2022-07-30T07:55:27.077Z,994.27
2022-07-30T07:56:27.045Z,994.26
2022-07-30T07:57:27.062Z,994.22
2022-07-30T07:58:27.067Z,994.26
2022-07-30T07:59:35.888Z,994.27
2022-07-30T08:00:28.019Z,994.25
2022-07-30T08:01:27.067Z,994.25
2022-07-30T08:02:27.032Z,994.32
2022-07-30T08:03:26.993Z,994.26
2022-07-30T08:04:26.992Z,994.27
2022-07-30T08:05:54.396Z,994.19
2022-07-30T08:06:27.963Z,994.14
2022-07-30T08:07:26.976Z,994.16
2022-07-30T08:08:26.940Z,994.11
2022-07-30T08:09:27.958Z,994.09
2022-07-30T08:10:27.924Z,994.16
2022-07-30T08:11:26.910Z,994.17
2022-07-30T08:12:26.913Z,994.11
2022-07-30T08:13:51.567Z,994.12
2022-07-30T08:14:27.890Z,994.09
2022-07-30T08:15:27.868Z,994.12
2022-07-30T08:16:26.909Z,994.11
2022-07-30T08:17:26.853Z,994.05
2022-07-30T08:18:26.871Z,994.11
2022-07-30T08:19:26.846Z,994.08
2022-07-30T08:20:30.728Z,994.10
2022-07-30T08:21:27.812Z,994.12
2022-07-30T08:22:26.803Z,994.06
2022-07-30T08:23:26.813Z,993.99
2022-07-30T08:24:26.808Z,993.97
2022-07-30T08:25:26.789Z,993.98
2022-07-30T08:26:26.774Z,993.94
2022-07-30T08:27:26.763Z,993.95
2022-07-30T08:28:36.455Z,993.95
2022-07-30T08:29:27.755Z,994.02
2022-07-30T08:30:26.822Z,993.95
2022-07-30T08:31:26.734Z,993.95
2022-07-30T08:32:26.724Z,993.98
2022-07-30T08:33:27.456Z,994.00
2022-07-30T08:34:26.705Z,993.93
2022-07-30T08:35:26.705Z,993.94
2022-07-30T08:36:26.687Z,993.95
2022-07-30T08:37:26.703Z,993.92
2022-07-30T08:38:26.686Z,993.94
2022-07-30T08:39:26.654Z,993.97
2022-07-30T08:40:26.631Z,993.97
2022-07-30T08:41:26.613Z,993.95
2022-07-30T08:42:26.626Z,993.96
2022-07-30T08:43:26.613Z,994.01
2022-07-30T08:44:26.606Z,994.01
2022-07-30T08:45:34.816Z,994.00
2022-07-30T08:46:27.582Z,994.05
2022-07-30T08:47:26.578Z,994.00
2022-07-30T08:48:26.592Z,994.03
2022-07-30T08:49:26.613Z,994.05
2022-07-30T08:50:26.549Z,993.96
2022-07-30T08:51:26.610Z,993.91
2022-07-30T08:52:26.569Z,993.88
2022-07-30T08:53:26.522Z,993.95
2022-07-30T08:54:26.500Z,994.00
2022-07-30T08:55:26.481Z,994.00
2022-07-30T08:56:26.500Z,993.97
2022-07-30T08:57:26.479Z,993.92
2022-07-30T08:58:26.481Z,993.95
2022-07-30T08:59:52.888Z,993.97
2022-07-30T09:00:27.429Z,994.02
2022-07-30T09:01:26.437Z,994.07
2022-07-30T09:02:27.355Z,994.11
2022-07-30T09:03:26.405Z,994.12
2022-07-30T09:04:26.401Z,994.14
2022-07-30T09:05:26.401Z,994.13
2022-07-30T09:06:26.412Z,994.18
2022-07-30T09:07:26.368Z,994.14
2022-07-30T09:08:26.371Z,994.16
2022-07-30T09:09:26.340Z,994.24
2022-07-30T09:10:26.333Z,994.22
2022-07-30T09:11:26.332Z,994.26
2022-07-30T09:12:26.333Z,994.21
2022-07-30T09:13:26.362Z,994.22
2022-07-30T09:14:30.781Z,994.27
2022-07-30T09:15:26.315Z,994.16
2022-07-30T09:16:26.364Z,994.22
2022-07-30T09:17:31.222Z,994.24
2022-07-30T09:18:28.284Z,994.23
2022-07-30T09:19:26.276Z,994.17
2022-07-30T09:20:26.246Z,994.13
2022-07-30T09:21:26.239Z,994.21
2022-07-30T09:22:26.202Z,994.19
2022-07-30T09:23:26.233Z,994.21
2022-07-30T09:24:26.220Z,994.15
2022-07-30T09:25:26.192Z,994.17
2022-07-30T09:26:26.184Z,994.11
2022-07-30T09:27:26.957Z,994.16
2022-07-30T09:28:26.200Z,994.20
2022-07-30T09:29:26.249Z,994.26
2022-07-30T09:30:30.542Z,994.27
2022-07-30T09:32:26.140Z,994.21
2022-07-30T09:33:26.147Z,994.24
2022-07-30T09:34:26.118Z,994.21
2022-07-30T09:35:26.121Z,994.25
2022-07-30T09:36:26.103Z,994.22
2022-07-30T09:37:27.376Z,994.25
2022-07-30T09:38:26.092Z,994.24
2022-07-30T09:39:26.084Z,994.19
2022-07-30T09:40:27.862Z,994.26
2022-07-30T09:41:38.889Z,994.25
2022-07-30T09:42:28.057Z,994.20
2022-07-30T09:43:28.059Z,994.22
2022-07-30T09:44:27.046Z,994.27
2022-07-30T09:45:26.006Z,994.21
2022-07-30T09:46:27.053Z,994.18
2022-07-30T09:47:26.013Z,994.18
2022-07-30T09:48:26.009Z,994.17
2022-07-30T09:49:26.152Z,994.14
2022-07-30T09:51:54.443Z,994.15
2022-07-30T09:52:26.984Z,994.12
2022-07-30T09:53:26.496Z,994.12
2022-07-30T09:54:25.961Z,994.19
2022-07-30T09:55:25.935Z,994.13
2022-07-30T09:56:25.914Z,994.19
2022-07-30T09:57:27.876Z,994.19
2022-07-30T09:58:27.215Z,994.17
2022-07-30T09:59:25.931Z,994.13
2022-07-30T10:00:26.947Z,994.14
2022-07-30T10:01:49.877Z,994.23
2022-07-30T10:02:27.848Z,994.13
2022-07-30T10:03:38.506Z,994.19
2022-07-30T10:04:26.855Z,994.22
2022-07-30T10:05:25.847Z,994.15
2022-07-30T10:06:25.827Z,994.28
2022-07-30T10:07:26.017Z,994.14
2022-07-30T10:08:25.795Z,994.12
2022-07-30T10:09:25.802Z,994.20
2022-07-30T10:10:26.151Z,994.15
2022-07-30T10:11:25.815Z,994.24
2022-07-30T10:12:26.791Z,994.17
2022-07-30T10:13:29.262Z,994.15
2022-07-30T10:14:31.388Z,994.18
2022-07-30T10:15:26.735Z,994.21
2022-07-30T10:16:25.731Z,994.17
2022-07-30T10:17:25.716Z,994.16
2022-07-30T10:18:25.680Z,994.11
2022-07-30T10:19:40.359Z,994.17
2022-07-30T10:20:26.658Z,994.12
2022-07-30T10:21:25.820Z,994.09
2022-07-30T10:22:25.644Z,994.13
2022-07-30T10:23:27.168Z,994.09
2022-07-30T10:24:27.396Z,994.09
2022-07-30T10:25:28.100Z,993.99
2022-07-30T10:26:25.637Z,994.12
2022-07-30T10:27:25.614Z,994.09
2022-07-30T10:28:25.616Z,994.07
2022-07-30T10:29:33.683Z,994.10
2022-07-30T10:30:27.879Z,994.11
2022-07-30T10:31:49.275Z,994.07
2022-07-30T10:32:30.645Z,994.04
2022-07-30T10:33:37.527Z,994.09
2022-07-30T10:34:28.442Z,994.06
2022-07-30T10:35:34.510Z,994.09
2022-07-30T10:36:26.526Z,994.08
2022-07-30T10:37:25.514Z,994.06
2022-07-30T10:38:25.509Z,994.07
2022-07-30T10:39:26.245Z,994.14
2022-07-30T10:40:30.443Z,994.15
2022-07-30T10:41:42.178Z,994.11
2022-07-30T10:42:26.465Z,994.17
2022-07-30T10:43:31.763Z,994.12
2022-07-30T10:44:26.484Z,994.15
2022-07-30T10:45:25.456Z,994.14
2022-07-30T10:46:25.425Z,994.16
2022-07-30T10:47:29.845Z,994.15
2022-07-30T10:48:27.389Z,994.11
2022-07-30T10:49:25.427Z,994.11
2022-07-30T10:50:25.414Z,994.12
2022-07-30T10:51:34.663Z,994.08
2022-07-30T10:52:26.375Z,994.16
2022-07-30T10:53:28.532Z,994.19
2022-07-30T10:54:26.374Z,994.17
2022-07-30T10:55:36.931Z,994.19
2022-07-30T10:56:26.327Z,994.16
2022-07-30T10:57:32.817Z,994.20
2022-07-30T10:58:26.321Z,994.10
2022-07-30T10:59:28.929Z,994.13
2022-07-30T11:00:26.402Z,994.10
2022-07-30T11:01:25.283Z,994.09
2022-07-30T11:02:26.291Z,994.13
2022-07-30T11:03:40.502Z,994.08
2022-07-30T11:04:29.434Z,994.18
2022-07-30T11:05:27.137Z,994.21
2022-07-30T11:06:26.249Z,994.10
2022-07-30T11:07:25.248Z,994.16
2022-07-30T11:08:26.643Z,994.08
2022-07-30T11:09:26.200Z,994.12
2022-07-30T11:10:25.244Z,994.19
2022-07-30T11:11:28.709Z,994.14
2022-07-30T11:12:26.172Z,994.16
2022-07-30T11:13:25.227Z,994.20
2022-07-30T11:14:25.181Z,994.15
2022-07-30T11:15:25.177Z,994.21
2022-07-30T11:16:26.200Z,994.18
2022-07-30T11:17:25.154Z,994.23
2022-07-30T11:18:25.178Z,994.22
2022-07-30T11:19:55.161Z,994.18
2022-07-30T11:20:27.113Z,994.21
2022-07-30T11:21:25.110Z,994.18
2022-07-30T11:22:25.122Z,994.26
2022-07-30T11:23:25.080Z,994.23
2022-07-30T11:24:25.070Z,994.12
2022-07-30T11:25:25.103Z,994.13
2022-07-30T11:26:26.064Z,994.14
2022-07-30T11:27:25.051Z,994.13
2022-07-30T11:28:25.036Z,994.14
2022-07-30T11:29:32.805Z,994.13
2022-07-30T11:30:26.038Z,994.16
2022-07-30T11:31:37.115Z,994.13
2022-07-30T11:32:25.997Z,994.11
2022-07-30T11:33:32.306Z,994.13
2022-07-30T11:34:26.127Z,994.11
2022-07-30T11:35:24.994Z,994.17
2022-07-30T11:36:24.971Z,994.19
2022-07-30T11:37:31.876Z,994.20
2022-07-30T11:38:26.003Z,994.15
2022-07-30T11:39:29.793Z,994.16
2022-07-30T11:40:26.965Z,994.21
2022-07-30T11:41:24.943Z,994.11
2022-07-30T11:42:24.917Z,994.22
2022-07-30T11:43:34.850Z,994.22
2022-07-30T11:44:25.907Z,994.21
2022-07-30T11:45:24.933Z,994.19
2022-07-30T11:46:29.698Z,994.22
2022-07-30T11:47:25.862Z,994.13
2022-07-30T11:48:24.897Z,994.13
2022-07-30T11:49:24.928Z,994.15
2022-07-30T11:50:24.867Z,994.14
2022-07-30T11:51:24.860Z,994.14
2022-07-30T11:52:24.835Z,994.12
2022-07-30T11:53:24.859Z,994.15
2022-07-30T11:54:24.805Z,994.18
2022-07-30T11:55:24.811Z,994.11
2022-07-30T11:56:24.796Z,994.13
2022-07-30T11:57:24.793Z,994.08
2022-07-30T11:58:25.785Z,994.11
2022-07-30T11:59:24.751Z,994.09
2022-07-30T12:00:24.795Z,994.07
2022-07-30T12:01:24.776Z,994.11
2022-07-30T12:02:24.745Z,994.12
2022-07-30T12:03:24.740Z,994.12
2022-07-30T12:04:24.684Z,994.13
2022-07-30T12:05:24.711Z,994.09
2022-07-30T12:06:24.703Z,994.10
2022-07-30T12:07:24.692Z,994.09
2022-07-30T12:08:35.356Z,994.08
2022-07-30T12:09:27.259Z,994.07
2022-07-30T12:10:26.826Z,994.08
2022-07-30T12:11:24.659Z,994.14
2022-07-30T12:12:24.654Z,994.08
2022-07-30T12:13:24.628Z,994.10
2022-07-30T12:14:25.663Z,994.14
2022-07-30T12:15:24.615Z,994.11
2022-07-30T12:16:24.627Z,994.12
2022-07-30T12:17:24.598Z,994.09
2022-07-30T12:18:26.765Z,994.07
2022-07-30T12:19:25.605Z,994.15
2022-07-30T12:20:24.629Z,994.11
2022-07-30T12:21:24.598Z,994.07
2022-07-30T12:22:24.545Z,994.13
2022-07-30T12:23:24.549Z,994.08
2022-07-30T12:24:24.550Z,994.09
2022-07-30T12:25:24.564Z,994.03
2022-07-30T12:26:24.555Z,994.05
2022-07-30T12:27:24.495Z,994.05
2022-07-30T12:28:24.523Z,994.07
2022-07-30T12:29:24.512Z,993.95
2022-07-30T12:30:24.521Z,993.97